Etusivu
METAR-TAF:

METAR-TAF

Lentoasemat :

Bandar Lengeh, Iran

Leveyspiiri: 26-35N, Pituuspiiri: 054-50E, korkeus merenpinnasta: 14 m

Tämänhetkinen sää

Tämä raportti tehtiin 45 minuuttia sitten, kello 09.00 UTC
Tuuli 4 kn etelästä
Lämpötila 26°C
Kosteus 61%
Ilmanpaine 1012 hPa
Näkyvyys: 5000 m
Hajanaisia pilviä 3000 ft:n korkeudessa
Hajonneita pilviä 10000 ft:n korkeudessa
usvaa

METAR: OIBL 260900Z 18004KT 5000 HZ SCT030 BKN100 26/18 Q1012

Aika: 13:15 (09:45 UTC)


TAF: puuttuu

Säähavainnot ja -ennusteet yli 4000 lentoasemalta (METAR- ja TAF-raportit).

Käytössä olevat sääasemat on merkitty karttaan keltaisilla ja punaisilla pisteillä.

Aseta hiiri pisteen päälle nähdäksesi sääaseman nimen.

Klikkaa sitten nähdäksesi säähavainnot ja -ennusteet.

Kartan vaihtaminen: klikkaa mustalla rastilla varustettuja vihreitä pisteitä, niin voit zoomata sisään; viivalla varustettua vihreää pistettä, niin voit zoomata ulos tai vihreitä nuolia, niin pääset viereisille kartoille.


METAR-TAF: